sensor_id;sensor_type;location;lat;lon;timestamp;P1;durP1;ratioP1;P2;durP2;ratioP2
53052;SDS011;38934;52.690;6.184;2023-11-18T00:01:44;107.55;;;39.70;;
53052;SDS011;38934;52.690;6.184;2023-11-18T00:04:10;171.13;;;46.15;;
53052;SDS011;38934;52.690;6.184;2023-11-18T00:06:44;97.25;;;37.92;;
53052;SDS011;38934;52.690;6.184;2023-11-18T00:09:13;130.20;;;41.75;;
53052;SDS011;38934;52.690;6.184;2023-11-18T00:11:42;118.18;;;38.05;;
53052;SDS011;38934;52.690;6.184;2023-11-18T00:14:08;128.88;;;40.83;;
53052;SDS011;38934;52.690;6.184;2023-11-18T00:16:36;98.47;;;34.75;;
53052;SDS011;38934;52.690;6.184;2023-11-18T00:19:03;86.60;;;35.58;;
53052;SDS011;38934;52.690;6.184;2023-11-18T00:21:34;95.97;;;34.55;;
53052;SDS011;38934;52.690;6.184;2023-11-18T00:24:01;100.85;;;36.70;;
53052;SDS011;38934;52.690;6.184;2023-11-18T00:26:27;110.93;;;36.75;;
53052;SDS011;38934;52.690;6.184;2023-11-18T00:28:52;104.40;;;35.95;;
53052;SDS011;38934;52.690;6.184;2023-11-18T00:31:18;80.60;;;32.83;;
53052;SDS011;38934;52.690;6.184;2023-11-18T00:33:43;132.30;;;40.58;;
53052;SDS011;38934;52.690;6.184;2023-11-18T00:36:10;128.77;;;40.92;;
53052;SDS011;38934;52.690;6.184;2023-11-18T00:38:35;114.15;;;36.85;;
53052;SDS011;38934;52.690;6.184;2023-11-18T00:41:01;99.78;;;35.92;;
53052;SDS011;38934;52.690;6.184;2023-11-18T00:43:26;140.70;;;40.97;;
53052;SDS011;38934;52.690;6.184;2023-11-18T00:45:52;118.13;;;38.60;;
53052;SDS011;38934;52.690;6.184;2023-11-18T00:48:17;141.05;;;43.08;;
53052;SDS011;38934;52.690;6.184;2023-11-18T00:50:43;141.40;;;43.38;;
53052;SDS011;38934;52.690;6.184;2023-11-18T00:53:09;127.90;;;39.63;;
53052;SDS011;38934;52.690;6.184;2023-11-18T00:55:35;128.30;;;41.35;;
53052;SDS011;38934;52.690;6.184;2023-11-18T00:58:01;175.90;;;44.83;;
53052;SDS011;38934;52.690;6.184;2023-11-18T01:00:27;145.98;;;43.78;;
53052;SDS011;38934;52.690;6.184;2023-11-18T01:02:52;141.70;;;42.08;;
53052;SDS011;38934;52.690;6.184;2023-11-18T01:05:20;129.95;;;39.75;;
53052;SDS011;38934;52.690;6.184;2023-11-18T01:07:45;128.68;;;40.00;;
53052;SDS011;38934;52.690;6.184;2023-11-18T01:10:11;121.50;;;40.45;;
53052;SDS011;38934;52.690;6.184;2023-11-18T01:12:38;133.77;;;42.17;;
53052;SDS011;38934;52.690;6.184;2023-11-18T01:15:05;119.95;;;38.40;;
53052;SDS011;38934;52.690;6.184;2023-11-18T01:17:32;119.28;;;39.65;;
53052;SDS011;38934;52.690;6.184;2023-11-18T01:19:58;101.32;;;36.97;;
53052;SDS011;38934;52.690;6.184;2023-11-18T01:22:24;139.32;;;43.65;;
53052;SDS011;38934;52.690;6.184;2023-11-18T01:24:50;130.60;;;40.30;;
53052;SDS011;38934;52.690;6.184;2023-11-18T01:27:18;134.50;;;41.28;;
53052;SDS011;38934;52.690;6.184;2023-11-18T01:29:45;117.47;;;38.28;;
53052;SDS011;38934;52.690;6.184;2023-11-18T01:32:12;111.63;;;39.20;;
53052;SDS011;38934;52.690;6.184;2023-11-18T01:34:39;108.47;;;37.47;;
53052;SDS011;38934;52.690;6.184;2023-11-18T01:37:05;121.80;;;39.30;;
53052;SDS011;38934;52.690;6.184;2023-11-18T01:39:35;120.18;;;39.78;;
53052;SDS011;38934;52.690;6.184;2023-11-18T01:42:01;129.63;;;40.78;;
53052;SDS011;38934;52.690;6.184;2023-11-18T01:44:30;143.70;;;42.08;;
53052;SDS011;38934;52.690;6.184;2023-11-18T01:46:59;130.05;;;40.60;;
53052;SDS011;38934;52.690;6.184;2023-11-18T01:49:28;124.30;;;43.22;;
53052;SDS011;38934;52.690;6.184;2023-11-18T01:51:54;123.10;;;40.17;;
53052;SDS011;38934;52.690;6.184;2023-11-18T01:54:21;107.65;;;38.00;;
53052;SDS011;38934;52.690;6.184;2023-11-18T01:56:49;104.38;;;38.50;;
53052;SDS011;38934;52.690;6.184;2023-11-18T01:59:15;111.00;;;38.92;;
53052;SDS011;38934;52.690;6.184;2023-11-18T02:01:50;103.28;;;37.65;;
53052;SDS011;38934;52.690;6.184;2023-11-18T02:04:18;118.32;;;39.17;;
53052;SDS011;38934;52.690;6.184;2023-11-18T02:06:44;104.95;;;37.85;;
53052;SDS011;38934;52.690;6.184;2023-11-18T02:09:11;114.78;;;39.20;;
53052;SDS011;38934;52.690;6.184;2023-11-18T02:11:39;125.32;;;41.35;;
53052;SDS011;38934;52.690;6.184;2023-11-18T02:14:13;123.50;;;40.60;;
53052;SDS011;38934;52.690;6.184;2023-11-18T02:16:41;113.68;;;38.97;;
53052;SDS011;38934;52.690;6.184;2023-11-18T02:19:14;98.60;;;36.30;;
53052;SDS011;38934;52.690;6.184;2023-11-18T02:21:45;107.43;;;38.72;;
53052;SDS011;38934;52.690;6.184;2023-11-18T02:24:18;116.32;;;39.58;;
53052;SDS011;38934;52.690;6.184;2023-11-18T02:26:56;103.15;;;38.25;;
53052;SDS011;38934;52.690;6.184;2023-11-18T02:29:22;110.28;;;38.47;;
53052;SDS011;38934;52.690;6.184;2023-11-18T02:31:49;118.78;;;40.15;;
53052;SDS011;38934;52.690;6.184;2023-11-18T02:34:19;117.97;;;39.78;;
53052;SDS011;38934;52.690;6.184;2023-11-18T02:36:51;120.40;;;39.92;;
53052;SDS011;38934;52.690;6.184;2023-11-18T02:41:54;104.53;;;38.72;;
53052;SDS011;38934;52.690;6.184;2023-11-18T02:44:21;105.55;;;37.88;;
53052;SDS011;38934;52.690;6.184;2023-11-18T02:46:48;115.50;;;40.45;;
53052;SDS011;38934;52.690;6.184;2023-11-18T02:49:14;106.97;;;38.20;;
53052;SDS011;38934;52.690;6.184;2023-11-18T02:51:40;102.13;;;37.70;;
53052;SDS011;38934;52.690;6.184;2023-11-18T02:54:06;97.68;;;37.20;;
53052;SDS011;38934;52.690;6.184;2023-11-18T02:56:35;102.63;;;38.33;;
53052;SDS011;38934;52.690;6.184;2023-11-18T02:59:04;97.45;;;35.03;;
53052;SDS011;38934;52.690;6.184;2023-11-18T03:01:32;108.30;;;40.00;;
53052;SDS011;38934;52.690;6.184;2023-11-18T03:04:01;104.50;;;38.38;;
53052;SDS011;38934;52.690;6.184;2023-11-18T03:06:27;92.90;;;37.55;;
53052;SDS011;38934;52.690;6.184;2023-11-18T03:08:53;93.78;;;35.97;;
53052;SDS011;38934;52.690;6.184;2023-11-18T03:11:19;101.28;;;38.03;;
53052;SDS011;38934;52.690;6.184;2023-11-18T03:13:45;98.07;;;36.50;;
53052;SDS011;38934;52.690;6.184;2023-11-18T03:16:13;82.13;;;35.55;;
53052;SDS011;38934;52.690;6.184;2023-11-18T03:18:40;82.30;;;34.70;;
53052;SDS011;38934;52.690;6.184;2023-11-18T03:21:13;123.10;;;42.08;;
53052;SDS011;38934;52.690;6.184;2023-11-18T03:23:39;89.73;;;36.50;;
53052;SDS011;38934;52.690;6.184;2023-11-18T03:26:06;98.35;;;37.25;;
53052;SDS011;38934;52.690;6.184;2023-11-18T03:28:32;94.78;;;37.95;;
53052;SDS011;38934;52.690;6.184;2023-11-18T03:30:58;102.07;;;37.58;;
53052;SDS011;38934;52.690;6.184;2023-11-18T03:33:24;101.22;;;35.65;;
53052;SDS011;38934;52.690;6.184;2023-11-18T03:35:50;95.28;;;37.65;;
53052;SDS011;38934;52.690;6.184;2023-11-18T03:38:15;106.45;;;41.22;;
53052;SDS011;38934;52.690;6.184;2023-11-18T03:40:44;114.93;;;39.97;;
53052;SDS011;38934;52.690;6.184;2023-11-18T03:43:10;119.15;;;39.67;;
53052;SDS011;38934;52.690;6.184;2023-11-18T03:45:39;99.05;;;38.40;;
53052;SDS011;38934;52.690;6.184;2023-11-18T03:48:06;119.95;;;40.05;;
53052;SDS011;38934;52.690;6.184;2023-11-18T03:50:35;103.82;;;36.97;;
53052;SDS011;38934;52.690;6.184;2023-11-18T03:53:01;110.82;;;38.63;;
53052;SDS011;38934;52.690;6.184;2023-11-18T03:55:28;124.65;;;42.25;;
53052;SDS011;38934;52.690;6.184;2023-11-18T03:57:55;132.98;;;42.17;;
53052;SDS011;38934;52.690;6.184;2023-11-18T04:00:22;122.95;;;40.33;;
53052;SDS011;38934;52.690;6.184;2023-11-18T04:02:47;100.22;;;36.97;;
53052;SDS011;38934;52.690;6.184;2023-11-18T04:05:13;147.68;;;42.92;;
53052;SDS011;38934;52.690;6.184;2023-11-18T04:07:39;90.97;;;36.65;;
53052;SDS011;38934;52.690;6.184;2023-11-18T04:10:07;107.75;;;39.70;;
53052;SDS011;38934;52.690;6.184;2023-11-18T04:12:35;123.28;;;39.47;;
53052;SDS011;38934;52.690;6.184;2023-11-18T04:15:04;92.47;;;36.25;;
53052;SDS011;38934;52.690;6.184;2023-11-18T04:17:30;112.20;;;39.85;;
53052;SDS011;38934;52.690;6.184;2023-11-18T04:19:56;120.10;;;41.50;;
53052;SDS011;38934;52.690;6.184;2023-11-18T04:22:22;114.50;;;40.08;;
53052;SDS011;38934;52.690;6.184;2023-11-18T04:24:48;103.88;;;37.50;;
53052;SDS011;38934;52.690;6.184;2023-11-18T04:27:14;124.40;;;41.53;;
53052;SDS011;38934;52.690;6.184;2023-11-18T04:29:40;155.13;;;44.53;;
53052;SDS011;38934;52.690;6.184;2023-11-18T04:32:07;93.85;;;36.47;;
53052;SDS011;38934;52.690;6.184;2023-11-18T04:34:36;141.13;;;41.28;;
53052;SDS011;38934;52.690;6.184;2023-11-18T04:37:02;101.28;;;36.60;;
53052;SDS011;38934;52.690;6.184;2023-11-18T04:39:28;102.80;;;38.03;;
53052;SDS011;38934;52.690;6.184;2023-11-18T04:41:57;126.07;;;39.10;;
53052;SDS011;38934;52.690;6.184;2023-11-18T04:44:22;143.55;;;41.67;;
53052;SDS011;38934;52.690;6.184;2023-11-18T04:46:48;112.50;;;39.15;;
53052;SDS011;38934;52.690;6.184;2023-11-18T04:49:14;175.35;;;40.95;;
53052;SDS011;38934;52.690;6.184;2023-11-18T04:51:40;144.52;;;40.92;;
53052;SDS011;38934;52.690;6.184;2023-11-18T04:54:06;159.80;;;41.15;;
53052;SDS011;38934;52.690;6.184;2023-11-18T04:56:33;154.20;;;41.53;;
53052;SDS011;38934;52.690;6.184;2023-11-18T04:59:05;120.43;;;39.47;;
53052;SDS011;38934;52.690;6.184;2023-11-18T05:01:31;127.63;;;39.65;;
53052;SDS011;38934;52.690;6.184;2023-11-18T05:03:57;142.13;;;41.28;;
53052;SDS011;38934;52.690;6.184;2023-11-18T05:06:24;109.65;;;37.10;;
53052;SDS011;38934;52.690;6.184;2023-11-18T05:08:49;114.90;;;38.42;;
53052;SDS011;38934;52.690;6.184;2023-11-18T05:11:15;119.03;;;39.70;;
53052;SDS011;38934;52.690;6.184;2023-11-18T05:13:41;102.03;;;36.78;;
53052;SDS011;38934;52.690;6.184;2023-11-18T05:16:06;121.78;;;39.83;;
53052;SDS011;38934;52.690;6.184;2023-11-18T05:18:32;124.20;;;41.13;;
53052;SDS011;38934;52.690;6.184;2023-11-18T05:21:01;143.98;;;40.72;;
53052;SDS011;38934;52.690;6.184;2023-11-18T05:23:28;193.52;;;44.17;;
53052;SDS011;38934;52.690;6.184;2023-11-18T05:25:54;143.00;;;39.85;;
53052;SDS011;38934;52.690;6.184;2023-11-18T05:28:21;144.80;;;42.03;;
53052;SDS011;38934;52.690;6.184;2023-11-18T05:30:47;209.20;;;46.30;;
53052;SDS011;38934;52.690;6.184;2023-11-18T05:33:12;197.43;;;45.38;;
53052;SDS011;38934;52.690;6.184;2023-11-18T05:35:42;127.65;;;41.13;;
53052;SDS011;38934;52.690;6.184;2023-11-18T05:38:17;126.00;;;41.30;;
53052;SDS011;38934;52.690;6.184;2023-11-18T05:40:57;192.60;;;45.35;;
53052;SDS011;38934;52.690;6.184;2023-11-18T05:43:24;135.23;;;40.03;;
53052;SDS011;38934;52.690;6.184;2023-11-18T05:45:54;217.13;;;47.30;;
53052;SDS011;38934;52.690;6.184;2023-11-18T05:48:40;121.90;;;38.53;;
53052;SDS011;38934;52.690;6.184;2023-11-18T05:51:09;152.23;;;41.13;;
53052;SDS011;38934;52.690;6.184;2023-11-18T05:53:39;151.27;;;41.30;;
53052;SDS011;38934;52.690;6.184;2023-11-18T05:56:10;126.97;;;38.72;;
53052;SDS011;38934;52.690;6.184;2023-11-18T05:58:39;177.48;;;43.78;;
53052;SDS011;38934;52.690;6.184;2023-11-18T06:01:05;115.07;;;38.47;;
53052;SDS011;38934;52.690;6.184;2023-11-18T06:03:34;207.60;;;46.45;;
53052;SDS011;38934;52.690;6.184;2023-11-18T06:06:03;124.57;;;37.75;;
53052;SDS011;38934;52.690;6.184;2023-11-18T06:08:32;107.82;;;36.78;;
53052;SDS011;38934;52.690;6.184;2023-11-18T06:10:58;156.68;;;42.28;;
53052;SDS011;38934;52.690;6.184;2023-11-18T06:13:24;156.55;;;43.13;;
53052;SDS011;38934;52.690;6.184;2023-11-18T06:15:52;161.63;;;40.95;;
53052;SDS011;38934;52.690;6.184;2023-11-18T06:18:18;164.10;;;42.88;;
53052;SDS011;38934;52.690;6.184;2023-11-18T06:20:44;124.38;;;38.38;;
53052;SDS011;38934;52.690;6.184;2023-11-18T06:23:10;116.43;;;38.20;;
53052;SDS011;38934;52.690;6.184;2023-11-18T06:25:36;136.95;;;39.97;;
53052;SDS011;38934;52.690;6.184;2023-11-18T06:28:01;154.30;;;41.47;;
53052;SDS011;38934;52.690;6.184;2023-11-18T06:30:27;190.82;;;44.63;;
53052;SDS011;38934;52.690;6.184;2023-11-18T06:32:53;180.55;;;43.75;;
53052;SDS011;38934;52.690;6.184;2023-11-18T06:35:18;147.82;;;38.90;;
53052;SDS011;38934;52.690;6.184;2023-11-18T06:37:46;122.97;;;38.25;;
53052;SDS011;38934;52.690;6.184;2023-11-18T06:40:12;113.25;;;38.28;;
53052;SDS011;38934;52.690;6.184;2023-11-18T06:42:44;142.52;;;39.45;;
53052;SDS011;38934;52.690;6.184;2023-11-18T06:45:14;108.73;;;38.07;;
53052;SDS011;38934;52.690;6.184;2023-11-18T06:47:40;168.48;;;41.90;;
53052;SDS011;38934;52.690;6.184;2023-11-18T06:50:09;131.82;;;40.70;;
53052;SDS011;38934;52.690;6.184;2023-11-18T06:52:36;121.93;;;38.70;;
53052;SDS011;38934;52.690;6.184;2023-11-18T06:55:03;130.18;;;40.38;;
53052;SDS011;38934;52.690;6.184;2023-11-18T06:57:29;98.68;;;36.05;;
53052;SDS011;38934;52.690;6.184;2023-11-18T06:59:56;129.77;;;40.38;;
53052;SDS011;38934;52.690;6.184;2023-11-18T07:02:21;121.75;;;39.80;;
53052;SDS011;38934;52.690;6.184;2023-11-18T07:04:47;142.55;;;41.33;;
53052;SDS011;38934;52.690;6.184;2023-11-18T07:07:12;117.68;;;36.85;;
53052;SDS011;38934;52.690;6.184;2023-11-18T07:09:39;106.18;;;38.03;;
53052;SDS011;38934;52.690;6.184;2023-11-18T07:12:04;123.95;;;39.58;;
53052;SDS011;38934;52.690;6.184;2023-11-18T07:14:30;110.18;;;38.10;;
53052;SDS011;38934;52.690;6.184;2023-11-18T07:16:56;119.13;;;39.33;;
53052;SDS011;38934;52.690;6.184;2023-11-18T07:19:21;101.40;;;37.17;;
53052;SDS011;38934;52.690;6.184;2023-11-18T07:21:48;103.18;;;38.42;;
53052;SDS011;38934;52.690;6.184;2023-11-18T07:24:15;136.98;;;41.88;;
53052;SDS011;38934;52.690;6.184;2023-11-18T07:26:42;107.07;;;36.55;;
53052;SDS011;38934;52.690;6.184;2023-11-18T07:29:09;135.43;;;40.30;;
53052;SDS011;38934;52.690;6.184;2023-11-18T07:31:34;109.05;;;38.53;;
53052;SDS011;38934;52.690;6.184;2023-11-18T07:34:03;97.35;;;37.63;;
53052;SDS011;38934;52.690;6.184;2023-11-18T07:36:30;112.00;;;37.95;;
53052;SDS011;38934;52.690;6.184;2023-11-18T07:38:57;136.88;;;41.38;;
53052;SDS011;38934;52.690;6.184;2023-11-18T07:41:26;114.05;;;39.85;;
53052;SDS011;38934;52.690;6.184;2023-11-18T07:43:55;118.55;;;40.00;;
53052;SDS011;38934;52.690;6.184;2023-11-18T07:46:21;124.97;;;38.42;;
53052;SDS011;38934;52.690;6.184;2023-11-18T07:48:50;122.65;;;38.45;;
53052;SDS011;38934;52.690;6.184;2023-11-18T07:51:17;115.75;;;38.28;;
53052;SDS011;38934;52.690;6.184;2023-11-18T07:53:46;111.15;;;38.03;;
53052;SDS011;38934;52.690;6.184;2023-11-18T07:56:12;110.20;;;37.35;;
53052;SDS011;38934;52.690;6.184;2023-11-18T07:58:39;123.25;;;38.30;;
53052;SDS011;38934;52.690;6.184;2023-11-18T08:01:10;115.03;;;39.25;;
53052;SDS011;38934;52.690;6.184;2023-11-18T08:03:42;125.13;;;37.70;;
53052;SDS011;38934;52.690;6.184;2023-11-18T08:06:09;109.82;;;37.00;;
53052;SDS011;38934;52.690;6.184;2023-11-18T08:08:37;117.15;;;38.03;;
53052;SDS011;38934;52.690;6.184;2023-11-18T08:11:03;103.05;;;35.72;;
53052;SDS011;38934;52.690;6.184;2023-11-18T08:13:29;112.38;;;36.83;;
53052;SDS011;38934;52.690;6.184;2023-11-18T08:15:55;109.65;;;36.63;;
53052;SDS011;38934;52.690;6.184;2023-11-18T08:18:22;92.93;;;34.92;;
53052;SDS011;38934;52.690;6.184;2023-11-18T08:20:49;98.35;;;36.10;;
53052;SDS011;38934;52.690;6.184;2023-11-18T08:23:15;90.65;;;35.97;;
53052;SDS011;38934;52.690;6.184;2023-11-18T08:25:41;93.15;;;35.28;;
53052;SDS011;38934;52.690;6.184;2023-11-18T08:28:07;92.72;;;36.53;;
53052;SDS011;38934;52.690;6.184;2023-11-18T08:30:33;103.68;;;37.22;;
53052;SDS011;38934;52.690;6.184;2023-11-18T08:33:02;96.20;;;36.90;;
53052;SDS011;38934;52.690;6.184;2023-11-18T08:35:34;90.65;;;35.45;;
53052;SDS011;38934;52.690;6.184;2023-11-18T08:38:00;90.63;;;35.03;;
53052;SDS011;38934;52.690;6.184;2023-11-18T08:40:26;88.05;;;36.33;;
53052;SDS011;38934;52.690;6.184;2023-11-18T08:42:52;98.03;;;38.50;;
53052;SDS011;38934;52.690;6.184;2023-11-18T08:45:27;88.22;;;36.10;;
53052;SDS011;38934;52.690;6.184;2023-11-18T08:47:58;79.03;;;34.88;;
53052;SDS011;38934;52.690;6.184;2023-11-18T08:50:27;78.38;;;35.25;;
53052;SDS011;38934;52.690;6.184;2023-11-18T08:52:54;77.18;;;35.55;;
53052;SDS011;38934;52.690;6.184;2023-11-18T08:55:23;77.93;;;34.20;;
53052;SDS011;38934;52.690;6.184;2023-11-18T08:58:04;74.57;;;35.10;;
53052;SDS011;38934;52.690;6.184;2023-11-18T09:00:41;75.65;;;34.67;;
53052;SDS011;38934;52.690;6.184;2023-11-18T09:05:49;86.93;;;35.50;;
53052;SDS011;38934;52.690;6.184;2023-11-18T09:08:23;78.57;;;33.55;;
53052;SDS011;38934;52.690;6.184;2023-11-18T09:10:53;75.78;;;34.60;;
53052;SDS011;38934;52.690;6.184;2023-11-18T09:13:20;71.40;;;32.15;;
53052;SDS011;38934;52.690;6.184;2023-11-18T09:15:48;71.18;;;31.75;;
53052;SDS011;38934;52.690;6.184;2023-11-18T09:18:14;70.32;;;31.50;;
53052;SDS011;38934;52.690;6.184;2023-11-18T09:20:43;72.03;;;32.38;;
53052;SDS011;38934;52.690;6.184;2023-11-18T09:23:08;69.78;;;31.60;;
53052;SDS011;38934;52.690;6.184;2023-11-18T09:25:34;75.97;;;33.72;;
53052;SDS011;38934;52.690;6.184;2023-11-18T09:28:01;72.55;;;31.70;;
53052;SDS011;38934;52.690;6.184;2023-11-18T09:30:28;71.70;;;32.25;;
53052;SDS011;38934;52.690;6.184;2023-11-18T09:32:54;79.70;;;31.60;;
53052;SDS011;38934;52.690;6.184;2023-11-18T09:35:20;66.55;;;31.80;;
53052;SDS011;38934;52.690;6.184;2023-11-18T09:37:46;69.82;;;30.65;;
53052;SDS011;38934;52.690;6.184;2023-11-18T09:40:15;70.50;;;30.13;;
53052;SDS011;38934;52.690;6.184;2023-11-18T09:42:43;68.80;;;31.25;;
53052;SDS011;38934;52.690;6.184;2023-11-18T09:45:09;68.97;;;30.45;;
53052;SDS011;38934;52.690;6.184;2023-11-18T09:47:45;73.82;;;31.45;;
53052;SDS011;38934;52.690;6.184;2023-11-18T09:50:16;74.35;;;33.10;;
53052;SDS011;38934;52.690;6.184;2023-11-18T09:52:48;69.07;;;29.55;;
53052;SDS011;38934;52.690;6.184;2023-11-18T09:55:21;74.07;;;31.70;;
53052;SDS011;38934;52.690;6.184;2023-11-18T09:57:59;69.32;;;30.58;;
53052;SDS011;38934;52.690;6.184;2023-11-18T10:00:33;73.63;;;30.67;;
53052;SDS011;38934;52.690;6.184;2023-11-18T10:03:04;63.70;;;30.42;;
53052;SDS011;38934;52.690;6.184;2023-11-18T10:05:33;69.35;;;30.50;;
53052;SDS011;38934;52.690;6.184;2023-11-18T10:08:02;80.18;;;32.03;;
53052;SDS011;38934;52.690;6.184;2023-11-18T10:10:30;71.57;;;31.48;;
53052;SDS011;38934;52.690;6.184;2023-11-18T10:13:01;69.07;;;29.13;;
53052;SDS011;38934;52.690;6.184;2023-11-18T10:15:29;72.38;;;30.42;;
53052;SDS011;38934;52.690;6.184;2023-11-18T10:17:56;76.30;;;30.88;;
53052;SDS011;38934;52.690;6.184;2023-11-18T10:20:43;82.32;;;32.45;;
53052;SDS011;38934;52.690;6.184;2023-11-18T10:23:10;72.22;;;30.92;;
53052;SDS011;38934;52.690;6.184;2023-11-18T10:25:49;79.68;;;32.35;;
53052;SDS011;38934;52.690;6.184;2023-11-18T10:28:24;73.72;;;31.85;;
53052;SDS011;38934;52.690;6.184;2023-11-18T10:30:57;79.70;;;33.92;;
53052;SDS011;38934;52.690;6.184;2023-11-18T10:33:28;82.47;;;35.05;;
53052;SDS011;38934;52.690;6.184;2023-11-18T10:35:58;79.25;;;33.90;;
53052;SDS011;38934;52.690;6.184;2023-11-18T10:38:29;75.88;;;34.92;;
53052;SDS011;38934;52.690;6.184;2023-11-18T10:41:01;89.10;;;35.50;;
53052;SDS011;38934;52.690;6.184;2023-11-18T10:43:28;75.88;;;34.40;;
53052;SDS011;38934;52.690;6.184;2023-11-18T10:46:09;71.85;;;33.83;;
53052;SDS011;38934;52.690;6.184;2023-11-18T10:48:40;75.03;;;34.60;;
53052;SDS011;38934;52.690;6.184;2023-11-18T10:51:14;78.07;;;35.45;;
53052;SDS011;38934;52.690;6.184;2023-11-18T10:53:52;71.43;;;32.63;;
53052;SDS011;38934;52.690;6.184;2023-11-18T10:56:33;70.90;;;31.80;;
53052;SDS011;38934;52.690;6.184;2023-11-18T10:59:21;69.22;;;31.80;;
53052;SDS011;38934;52.690;6.184;2023-11-18T11:01:48;64.63;;;30.33;;
53052;SDS011;38934;52.690;6.184;2023-11-18T11:04:14;66.05;;;30.85;;
53052;SDS011;38934;52.690;6.184;2023-11-18T11:06:52;62.75;;;28.92;;
53052;SDS011;38934;52.690;6.184;2023-11-18T11:09:44;55.78;;;27.27;;
53052;SDS011;38934;52.690;6.184;2023-11-18T11:12:11;61.13;;;28.83;;
53052;SDS011;38934;52.690;6.184;2023-11-18T11:15:01;57.80;;;26.77;;
53052;SDS011;38934;52.690;6.184;2023-11-18T11:17:46;58.28;;;27.60;;
53052;SDS011;38934;52.690;6.184;2023-11-18T11:20:18;58.20;;;28.17;;
53052;SDS011;38934;52.690;6.184;2023-11-18T11:28:40;54.28;;;25.70;;
53052;SDS011;38934;52.690;6.184;2023-11-18T11:31:17;51.08;;;25.50;;
53052;SDS011;38934;52.690;6.184;2023-11-18T11:36:48;49.40;;;24.77;;
53052;SDS011;38934;52.690;6.184;2023-11-18T11:39:16;45.95;;;23.25;;
53052;SDS011;38934;52.690;6.184;2023-11-18T11:41:50;55.65;;;24.90;;
53052;SDS011;38934;52.690;6.184;2023-11-18T11:44:21;50.20;;;23.75;;
53052;SDS011;38934;52.690;6.184;2023-11-18T11:46:54;52.38;;;24.05;;
53052;SDS011;38934;52.690;6.184;2023-11-18T11:49:21;48.83;;;23.98;;
53052;SDS011;38934;52.690;6.184;2023-11-18T11:54:59;44.97;;;23.65;;
53052;SDS011;38934;52.690;6.184;2023-11-18T11:57:32;46.05;;;22.83;;
53052;SDS011;38934;52.690;6.184;2023-11-18T12:00:02;47.03;;;22.13;;
53052;SDS011;38934;52.690;6.184;2023-11-18T12:02:40;52.03;;;22.88;;
53052;SDS011;38934;52.690;6.184;2023-11-18T12:05:25;45.15;;;21.58;;
53052;SDS011;38934;52.690;6.184;2023-11-18T12:07:55;43.10;;;20.63;;
53052;SDS011;38934;52.690;6.184;2023-11-18T12:10:21;43.92;;;20.13;;
53052;SDS011;38934;52.690;6.184;2023-11-18T12:12:51;44.45;;;21.08;;
53052;SDS011;38934;52.690;6.184;2023-11-18T12:15:54;45.58;;;20.48;;
53052;SDS011;38934;52.690;6.184;2023-11-18T12:18:24;46.67;;;21.63;;
53052;SDS011;38934;52.690;6.184;2023-11-18T12:20:50;42.90;;;19.80;;
53052;SDS011;38934;52.690;6.184;2023-11-18T12:23:27;41.92;;;20.40;;
53052;SDS011;38934;52.690;6.184;2023-11-18T12:25:55;46.13;;;20.88;;
53052;SDS011;38934;52.690;6.184;2023-11-18T12:28:28;45.53;;;20.70;;
53052;SDS011;38934;52.690;6.184;2023-11-18T12:31:00;40.65;;;20.05;;
53052;SDS011;38934;52.690;6.184;2023-11-18T12:34:00;43.75;;;19.95;;
53052;SDS011;38934;52.690;6.184;2023-11-18T12:41:39;41.47;;;19.35;;
53052;SDS011;38934;52.690;6.184;2023-11-18T12:46:52;46.05;;;18.98;;
53052;SDS011;38934;52.690;6.184;2023-11-18T12:49:22;42.85;;;19.95;;
53052;SDS011;38934;52.690;6.184;2023-11-18T12:51:49;43.10;;;20.05;;
53052;SDS011;38934;52.690;6.184;2023-11-18T12:54:16;44.75;;;19.27;;
53052;SDS011;38934;52.690;6.184;2023-11-18T12:56:44;47.15;;;19.70;;
53052;SDS011;38934;52.690;6.184;2023-11-18T12:59:13;36.78;;;18.58;;
53052;SDS011;38934;52.690;6.184;2023-11-18T13:01:52;42.30;;;18.95;;
53052;SDS011;38934;52.690;6.184;2023-11-18T13:04:25;36.33;;;18.70;;
53052;SDS011;38934;52.690;6.184;2023-11-18T13:06:52;40.20;;;19.25;;
53052;SDS011;38934;52.690;6.184;2023-11-18T13:09:18;36.17;;;19.50;;
53052;SDS011;38934;52.690;6.184;2023-11-18T13:11:59;43.38;;;19.23;;
53052;SDS011;38934;52.690;6.184;2023-11-18T13:14:29;41.80;;;19.38;;
53052;SDS011;38934;52.690;6.184;2023-11-18T13:17:01;39.72;;;18.55;;
53052;SDS011;38934;52.690;6.184;2023-11-18T13:19:33;49.97;;;20.50;;
53052;SDS011;38934;52.690;6.184;2023-11-18T13:22:00;47.08;;;20.20;;
53052;SDS011;38934;52.690;6.184;2023-11-18T13:24:28;41.47;;;19.70;;
53052;SDS011;38934;52.690;6.184;2023-11-18T13:26:56;39.67;;;19.20;;
53052;SDS011;38934;52.690;6.184;2023-11-18T13:29:23;43.38;;;19.67;;
53052;SDS011;38934;52.690;6.184;2023-11-18T13:31:50;41.10;;;18.45;;
53052;SDS011;38934;52.690;6.184;2023-11-18T13:34:17;41.42;;;19.65;;
53052;SDS011;38934;52.690;6.184;2023-11-18T13:36:43;39.47;;;19.40;;
53052;SDS011;38934;52.690;6.184;2023-11-18T13:39:16;35.97;;;18.27;;
53052;SDS011;38934;52.690;6.184;2023-11-18T13:41:48;34.95;;;18.40;;
53052;SDS011;38934;52.690;6.184;2023-11-18T13:44:33;36.85;;;18.95;;
53052;SDS011;38934;52.690;6.184;2023-11-18T13:47:00;39.40;;;19.60;;
53052;SDS011;38934;52.690;6.184;2023-11-18T13:49:36;38.65;;;19.70;;
53052;SDS011;38934;52.690;6.184;2023-11-18T13:52:05;36.85;;;20.00;;
53052;SDS011;38934;52.690;6.184;2023-11-18T13:54:39;36.28;;;19.17;;
53052;SDS011;38934;52.690;6.184;2023-11-18T13:57:08;37.13;;;19.95;;
53052;SDS011;38934;52.690;6.184;2023-11-18T13:59:34;44.33;;;19.65;;
53052;SDS011;38934;52.690;6.184;2023-11-18T14:02:00;35.80;;;18.92;;
53052;SDS011;38934;52.690;6.184;2023-11-18T14:04:29;36.78;;;18.88;;
53052;SDS011;38934;52.690;6.184;2023-11-18T14:07:01;34.80;;;18.90;;
53052;SDS011;38934;52.690;6.184;2023-11-18T14:09:32;33.35;;;19.13;;
53052;SDS011;38934;52.690;6.184;2023-11-18T14:12:02;38.25;;;18.55;;
53052;SDS011;38934;52.690;6.184;2023-11-18T14:14:31;32.90;;;17.52;;
53052;SDS011;38934;52.690;6.184;2023-11-18T14:16:57;34.47;;;18.83;;
53052;SDS011;38934;52.690;6.184;2023-11-18T14:19:24;33.28;;;17.23;;
53052;SDS011;38934;52.690;6.184;2023-11-18T14:21:51;31.63;;;17.05;;
53052;SDS011;38934;52.690;6.184;2023-11-18T14:24:17;29.55;;;16.23;;
53052;SDS011;38934;52.690;6.184;2023-11-18T14:26:43;30.80;;;16.90;;
53052;SDS011;38934;52.690;6.184;2023-11-18T14:29:09;31.80;;;16.40;;
53052;SDS011;38934;52.690;6.184;2023-11-18T14:31:36;29.02;;;16.23;;
53052;SDS011;38934;52.690;6.184;2023-11-18T14:34:03;25.90;;;14.70;;
53052;SDS011;38934;52.690;6.184;2023-11-18T14:36:29;26.67;;;13.90;;
53052;SDS011;38934;52.690;6.184;2023-11-18T14:38:55;23.30;;;13.15;;
53052;SDS011;38934;52.690;6.184;2023-11-18T14:41:21;24.00;;;13.68;;
53052;SDS011;38934;52.690;6.184;2023-11-18T14:43:51;27.75;;;13.32;;
53052;SDS011;38934;52.690;6.184;2023-11-18T14:46:17;25.85;;;12.65;;
53052;SDS011;38934;52.690;6.184;2023-11-18T14:48:43;24.40;;;13.38;;
53052;SDS011;38934;52.690;6.184;2023-11-18T14:51:09;24.75;;;13.57;;